ARCT2: Red River, ARthur City

                                SHEF ID:       ARCT2     Red River at Arthur City, TX
STATION TYPE: Stream Gauge
Regulating: Stage = 27.00, Flow = 84609

PRECIP ELEVATION STAGE STAGE(2) RIV-FLOW BAT-LOAD
in ft ft ft cfs volt
Ccp-Rev Ccp-Rev Ccp-Rev Ccp-Rev Ccp-Rev Ccp-Rev
(America/Chicago)
02/17 00:00 0.00 ---- 10.66 ---- 12518 12.49
02/17 01:00 0.00 ---- 10.47 ---- 12052 12.49
02/17 02:00 0.00 ---- 10.30 ---- 11641 12.49
02/17 03:00 0.00 ---- 10.14 ---- 11261 12.49
02/17 04:00 0.00 ---- 9.97 ---- 10862 12.41
02/17 05:00 0.00 ---- 9.79 ---- 10447 12.41
02/17 06:00 0.00 ---- 9.65 ---- 10148 12.41
02/17 07:00 0.00 ---- 9.49 ---- 9810 12.41
02/17 08:00 0.00 ---- 9.34 ---- 9498 12.41
02/17 09:00 0.00 ---- 9.17 ---- 9149 12.57
02/17 10:00 0.00 ---- 9.01 ---- 8826 13.29
02/17 11:00 0.00 ---- 8.90 ---- 8606 13.68
02/17 12:00 0.00 ---- 8.74 ---- 8290 13.76
02/17 13:00 0.00 ---- 8.60 ---- 8018 13.84
02/17 14:00 0.00 ---- 8.41 ---- 7654 14.08
02/17 15:00 0.00 ---- 8.31 ---- 7465 13.92
02/17 16:00 0.00 ---- 8.21 ---- 7278 13.92
02/17 17:00 0.00 ---- 8.14 ---- 7148 13.76
02/17 18:00 0.00 ---- 8.06 ---- 7001 13.44
02/17 19:00 0.00 ---- 7.96 ---- 6819 12.97
02/17 20:00 0.00 ---- 7.85 ---- 6621 12.65
02/17 21:00 0.00 ---- 7.76 ---- 6454 12.57
02/17 22:00 0.00 ---- 7.66 ---- 6265 12.57
02/17 23:00 0.00 ---- 7.57 ---- 6097 12.57
Data processed at Wed 18Feb2026 05:30 GMT

NOTICE: If you are parsing this page

Please convert to using our Data API. Starting early 2026 we will be migrating to: https://water.usace.army.mil with modern pages rendered in JavaScript. When this migration completes you will no longer be able to scrape this page! CWMSDataAPI (CDA)

Timeseries IDs (TSIDs)

TSIDs used from left to right in the data table
ARTH.Precip-Inc.Total.1Hour.1Hour.Ccp-Rev
ARTH.Stage.Inst.1Hour.0.Ccp-Rev
ARTH.Stage-Alt.Inst.1Hour.0.Ccp-Rev
ARTH.Flow.Inst.1Hour.0.Ccp-Rev
ARTH.Volt-Battery Load.Inst.1Hour.0.Ccp-Rev

                            

All information presented herein is the property of the government of the United States of America and may be revised or deleted at any time without prior notice. Dissemination of this information without the expressed written consent of the Public Affairs Office, Tulsa District U.S. Army Corps of Engineers is strictly prohibited. These data are gathered electronically and, as presented, have NOT undergone any form of quality control. These data are NOT guaranteed to be valid or correct.